sensor_id;sensor_type;location;lat;lon;timestamp;P1;durP1;ratioP1;P2;durP2;ratioP2
19605;SDS011;9950;50.168;8.210;2023-04-06T00:01:01;7.32;;;4.35;;
19605;SDS011;9950;50.168;8.210;2023-04-06T00:03:28;7.57;;;4.20;;
19605;SDS011;9950;50.168;8.210;2023-04-06T00:05:55;5.70;;;4.25;;
19605;SDS011;9950;50.168;8.210;2023-04-06T00:08:22;7.40;;;4.40;;
19605;SDS011;9950;50.168;8.210;2023-04-06T00:10:50;6.70;;;4.32;;
19605;SDS011;9950;50.168;8.210;2023-04-06T00:13:17;6.35;;;4.05;;
19605;SDS011;9950;50.168;8.210;2023-04-06T00:15:45;7.07;;;4.20;;
19605;SDS011;9950;50.168;8.210;2023-04-06T00:18:13;5.85;;;3.85;;
19605;SDS011;9950;50.168;8.210;2023-04-06T00:20:40;6.90;;;3.58;;
19605;SDS011;9950;50.168;8.210;2023-04-06T00:23:07;6.40;;;3.80;;
19605;SDS011;9950;50.168;8.210;2023-04-06T00:25:34;5.68;;;3.80;;
19605;SDS011;9950;50.168;8.210;2023-04-06T00:28:02;6.60;;;4.22;;
19605;SDS011;9950;50.168;8.210;2023-04-06T00:30:29;7.63;;;5.30;;
19605;SDS011;9950;50.168;8.210;2023-04-06T00:32:58;8.25;;;4.72;;
19605;SDS011;9950;50.168;8.210;2023-04-06T00:35:25;6.40;;;4.18;;
19605;SDS011;9950;50.168;8.210;2023-04-06T00:37:53;6.32;;;4.32;;
19605;SDS011;9950;50.168;8.210;2023-04-06T00:40:20;6.07;;;4.30;;
19605;SDS011;9950;50.168;8.210;2023-04-06T00:42:47;5.00;;;4.03;;
19605;SDS011;9950;50.168;8.210;2023-04-06T00:45:14;6.72;;;4.28;;
19605;SDS011;9950;50.168;8.210;2023-04-06T00:47:41;6.25;;;4.25;;
19605;SDS011;9950;50.168;8.210;2023-04-06T00:50:10;8.18;;;4.85;;
19605;SDS011;9950;50.168;8.210;2023-04-06T00:52:37;5.63;;;4.10;;
19605;SDS011;9950;50.168;8.210;2023-04-06T00:55:05;6.57;;;4.30;;
19605;SDS011;9950;50.168;8.210;2023-04-06T00:57:32;5.72;;;4.57;;
19605;SDS011;9950;50.168;8.210;2023-04-06T01:00:00;8.40;;;4.60;;
19605;SDS011;9950;50.168;8.210;2023-04-06T01:02:28;9.55;;;4.20;;
19605;SDS011;9950;50.168;8.210;2023-04-06T01:04:55;5.63;;;4.38;;
19605;SDS011;9950;50.168;8.210;2023-04-06T01:07:24;6.13;;;4.10;;
19605;SDS011;9950;50.168;8.210;2023-04-06T01:09:52;8.45;;;4.40;;
19605;SDS011;9950;50.168;8.210;2023-04-06T01:12:20;8.13;;;4.65;;
19605;SDS011;9950;50.168;8.210;2023-04-06T01:14:47;8.10;;;5.50;;
19605;SDS011;9950;50.168;8.210;2023-04-06T01:17:14;6.82;;;4.63;;
19605;SDS011;9950;50.168;8.210;2023-04-06T01:19:42;8.18;;;4.85;;
19605;SDS011;9950;50.168;8.210;2023-04-06T01:22:14;9.35;;;4.40;;
19605;SDS011;9950;50.168;8.210;2023-04-06T01:24:41;7.88;;;4.60;;
19605;SDS011;9950;50.168;8.210;2023-04-06T01:27:09;5.70;;;4.15;;
19605;SDS011;9950;50.168;8.210;2023-04-06T01:29:36;8.20;;;4.60;;
19605;SDS011;9950;50.168;8.210;2023-04-06T01:32:06;8.65;;;4.95;;
19605;SDS011;9950;50.168;8.210;2023-04-06T01:34:33;7.80;;;4.45;;
19605;SDS011;9950;50.168;8.210;2023-04-06T01:37:00;9.68;;;5.20;;
19605;SDS011;9950;50.168;8.210;2023-04-06T01:39:30;10.93;;;5.82;;
19605;SDS011;9950;50.168;8.210;2023-04-06T01:41:57;9.10;;;5.65;;
19605;SDS011;9950;50.168;8.210;2023-04-06T01:44:24;8.00;;;5.13;;
19605;SDS011;9950;50.168;8.210;2023-04-06T01:46:52;9.32;;;5.13;;
19605;SDS011;9950;50.168;8.210;2023-04-06T01:49:19;6.55;;;5.00;;
19605;SDS011;9950;50.168;8.210;2023-04-06T01:51:46;7.43;;;4.80;;
19605;SDS011;9950;50.168;8.210;2023-04-06T01:54:13;9.15;;;5.30;;
19605;SDS011;9950;50.168;8.210;2023-04-06T01:56:42;10.25;;;6.38;;
19605;SDS011;9950;50.168;8.210;2023-04-06T01:59:09;9.98;;;6.13;;
19605;SDS011;9950;50.168;8.210;2023-04-06T02:01:36;10.30;;;5.82;;
19605;SDS011;9950;50.168;8.210;2023-04-06T02:04:03;9.30;;;4.80;;
19605;SDS011;9950;50.168;8.210;2023-04-06T02:06:31;8.07;;;4.55;;
19605;SDS011;9950;50.168;8.210;2023-04-06T02:08:58;8.43;;;5.15;;
19605;SDS011;9950;50.168;8.210;2023-04-06T02:11:25;10.20;;;5.70;;
19605;SDS011;9950;50.168;8.210;2023-04-06T02:13:54;8.32;;;5.70;;
19605;SDS011;9950;50.168;8.210;2023-04-06T02:16:22;12.05;;;7.15;;
19605;SDS011;9950;50.168;8.210;2023-04-06T02:18:49;9.70;;;6.38;;
19605;SDS011;9950;50.168;8.210;2023-04-06T02:21:16;9.75;;;5.82;;
19605;SDS011;9950;50.168;8.210;2023-04-06T02:23:45;9.18;;;5.45;;
19605;SDS011;9950;50.168;8.210;2023-04-06T02:26:12;9.15;;;5.95;;
19605;SDS011;9950;50.168;8.210;2023-04-06T02:28:39;15.73;;;7.68;;
19605;SDS011;9950;50.168;8.210;2023-04-06T02:31:08;19.42;;;9.18;;
19605;SDS011;9950;50.168;8.210;2023-04-06T02:33:36;12.00;;;7.18;;
19605;SDS011;9950;50.168;8.210;2023-04-06T02:36:03;11.38;;;5.90;;
19605;SDS011;9950;50.168;8.210;2023-04-06T02:38:30;9.15;;;5.82;;
19605;SDS011;9950;50.168;8.210;2023-04-06T02:40:57;12.65;;;6.30;;
19605;SDS011;9950;50.168;8.210;2023-04-06T02:43:25;8.98;;;5.65;;
19605;SDS011;9950;50.168;8.210;2023-04-06T02:45:52;9.20;;;6.32;;
19605;SDS011;9950;50.168;8.210;2023-04-06T02:48:20;10.82;;;5.75;;
19605;SDS011;9950;50.168;8.210;2023-04-06T02:50:48;9.73;;;5.75;;
19605;SDS011;9950;50.168;8.210;2023-04-06T02:53:15;10.75;;;5.97;;
19605;SDS011;9950;50.168;8.210;2023-04-06T02:55:42;10.88;;;6.00;;
19605;SDS011;9950;50.168;8.210;2023-04-06T02:58:10;11.90;;;6.90;;
19605;SDS011;9950;50.168;8.210;2023-04-06T03:00:37;10.52;;;6.80;;
19605;SDS011;9950;50.168;8.210;2023-04-06T03:03:04;10.82;;;5.93;;
19605;SDS011;9950;50.168;8.210;2023-04-06T03:05:33;9.30;;;6.05;;
19605;SDS011;9950;50.168;8.210;2023-04-06T03:08:01;22.85;;;12.15;;
19605;SDS011;9950;50.168;8.210;2023-04-06T03:10:28;16.45;;;10.25;;
19605;SDS011;9950;50.168;8.210;2023-04-06T03:12:55;11.90;;;7.00;;
19605;SDS011;9950;50.168;8.210;2023-04-06T03:15:22;14.68;;;9.98;;
19605;SDS011;9950;50.168;8.210;2023-04-06T03:17:50;13.13;;;7.60;;
19605;SDS011;9950;50.168;8.210;2023-04-06T03:20:17;14.90;;;8.48;;
19605;SDS011;9950;50.168;8.210;2023-04-06T03:22:46;12.48;;;7.20;;
19605;SDS011;9950;50.168;8.210;2023-04-06T03:25:13;10.18;;;6.88;;
19605;SDS011;9950;50.168;8.210;2023-04-06T03:27:40;12.75;;;6.88;;
19605;SDS011;9950;50.168;8.210;2023-04-06T03:30:08;12.70;;;6.45;;
19605;SDS011;9950;50.168;8.210;2023-04-06T03:32:36;11.13;;;5.88;;
19605;SDS011;9950;50.168;8.210;2023-04-06T03:35:03;12.75;;;6.20;;
19605;SDS011;9950;50.168;8.210;2023-04-06T03:37:30;9.77;;;6.45;;
19605;SDS011;9950;50.168;8.210;2023-04-06T03:39:59;11.32;;;6.20;;
19605;SDS011;9950;50.168;8.210;2023-04-06T03:42:26;11.73;;;6.57;;
19605;SDS011;9950;50.168;8.210;2023-04-06T03:44:53;10.43;;;6.63;;
19605;SDS011;9950;50.168;8.210;2023-04-06T03:47:20;9.05;;;6.22;;
19605;SDS011;9950;50.168;8.210;2023-04-06T03:49:48;8.82;;;6.07;;
19605;SDS011;9950;50.168;8.210;2023-04-06T03:52:15;12.18;;;6.45;;
19605;SDS011;9950;50.168;8.210;2023-04-06T03:54:42;13.40;;;6.55;;
19605;SDS011;9950;50.168;8.210;2023-04-06T03:57:11;10.93;;;5.72;;
19605;SDS011;9950;50.168;8.210;2023-04-06T03:59:38;10.10;;;6.40;;
19605;SDS011;9950;50.168;8.210;2023-04-06T04:02:05;12.88;;;6.40;;
19605;SDS011;9950;50.168;8.210;2023-04-06T04:04:32;16.50;;;7.32;;
19605;SDS011;9950;50.168;8.210;2023-04-06T04:07:00;12.88;;;7.10;;
19605;SDS011;9950;50.168;8.210;2023-04-06T04:09:27;9.95;;;6.50;;
19605;SDS011;9950;50.168;8.210;2023-04-06T04:11:54;10.90;;;6.60;;
19605;SDS011;9950;50.168;8.210;2023-04-06T04:14:23;11.75;;;5.90;;
19605;SDS011;9950;50.168;8.210;2023-04-06T04:16:50;10.10;;;6.15;;
19605;SDS011;9950;50.168;8.210;2023-04-06T04:19:17;10.30;;;5.80;;
19605;SDS011;9950;50.168;8.210;2023-04-06T04:21:45;10.70;;;6.30;;
19605;SDS011;9950;50.168;8.210;2023-04-06T04:24:12;12.77;;;6.80;;
19605;SDS011;9950;50.168;8.210;2023-04-06T04:26:40;12.85;;;7.03;;
19605;SDS011;9950;50.168;8.210;2023-04-06T04:29:07;11.10;;;7.22;;
19605;SDS011;9950;50.168;8.210;2023-04-06T04:31:36;12.50;;;5.78;;
19605;SDS011;9950;50.168;8.210;2023-04-06T04:34:03;13.07;;;6.93;;
19605;SDS011;9950;50.168;8.210;2023-04-06T04:36:31;12.27;;;7.20;;
19605;SDS011;9950;50.168;8.210;2023-04-06T04:38:59;12.57;;;7.38;;
19605;SDS011;9950;50.168;8.210;2023-04-06T04:41:26;12.35;;;7.25;;
19605;SDS011;9950;50.168;8.210;2023-04-06T04:43:53;14.70;;;9.75;;
19605;SDS011;9950;50.168;8.210;2023-04-06T04:46:21;18.58;;;11.13;;
19605;SDS011;9950;50.168;8.210;2023-04-06T04:48:49;15.20;;;8.88;;
19605;SDS011;9950;50.168;8.210;2023-04-06T04:51:17;15.95;;;7.65;;
19605;SDS011;9950;50.168;8.210;2023-04-06T04:53:44;14.50;;;7.97;;
19605;SDS011;9950;50.168;8.210;2023-04-06T04:56:11;14.13;;;7.63;;
19605;SDS011;9950;50.168;8.210;2023-04-06T04:58:39;15.00;;;8.63;;
19605;SDS011;9950;50.168;8.210;2023-04-06T05:01:06;17.23;;;10.75;;
19605;SDS011;9950;50.168;8.210;2023-04-06T05:03:33;12.27;;;7.38;;
19605;SDS011;9950;50.168;8.210;2023-04-06T05:06:02;20.63;;;9.98;;
19605;SDS011;9950;50.168;8.210;2023-04-06T05:08:30;22.92;;;12.75;;
19605;SDS011;9950;50.168;8.210;2023-04-06T05:10:57;21.25;;;11.52;;
19605;SDS011;9950;50.168;8.210;2023-04-06T05:13:24;18.25;;;10.10;;
19605;SDS011;9950;50.168;8.210;2023-04-06T05:15:51;26.63;;;14.38;;
19605;SDS011;9950;50.168;8.210;2023-04-06T05:18:19;19.70;;;11.52;;
19605;SDS011;9950;50.168;8.210;2023-04-06T05:20:46;21.50;;;11.77;;
19605;SDS011;9950;50.168;8.210;2023-04-06T05:23:16;22.48;;;13.38;;
19605;SDS011;9950;50.168;8.210;2023-04-06T05:25:43;28.40;;;14.40;;
19605;SDS011;9950;50.168;8.210;2023-04-06T05:28:10;23.05;;;12.27;;
19605;SDS011;9950;50.168;8.210;2023-04-06T05:30:39;25.08;;;14.52;;
19605;SDS011;9950;50.168;8.210;2023-04-06T05:33:06;26.63;;;15.23;;
19605;SDS011;9950;50.168;8.210;2023-04-06T05:35:33;18.30;;;10.90;;
19605;SDS011;9950;50.168;8.210;2023-04-06T05:38:01;21.08;;;10.20;;
19605;SDS011;9950;50.168;8.210;2023-04-06T05:40:29;23.45;;;12.70;;
19605;SDS011;9950;50.168;8.210;2023-04-06T05:42:57;47.65;;;22.20;;
19605;SDS011;9950;50.168;8.210;2023-04-06T05:45:24;37.05;;;19.15;;
19605;SDS011;9950;50.168;8.210;2023-04-06T05:47:51;28.65;;;14.77;;
19605;SDS011;9950;50.168;8.210;2023-04-06T05:50:19;31.50;;;15.77;;
19605;SDS011;9950;50.168;8.210;2023-04-06T05:52:46;35.35;;;16.33;;
19605;SDS011;9950;50.168;8.210;2023-04-06T05:55:13;28.40;;;13.30;;
19605;SDS011;9950;50.168;8.210;2023-04-06T05:57:42;21.27;;;11.98;;
19605;SDS011;9950;50.168;8.210;2023-04-06T06:00:10;16.92;;;10.50;;
19605;SDS011;9950;50.168;8.210;2023-04-06T06:02:37;16.52;;;9.13;;
19605;SDS011;9950;50.168;8.210;2023-04-06T06:05:07;15.57;;;9.15;;
19605;SDS011;9950;50.168;8.210;2023-04-06T06:07:35;16.75;;;10.07;;
19605;SDS011;9950;50.168;8.210;2023-04-06T06:10:02;19.00;;;8.93;;
19605;SDS011;9950;50.168;8.210;2023-04-06T06:12:30;14.00;;;8.40;;
19605;SDS011;9950;50.168;8.210;2023-04-06T06:14:58;15.07;;;7.88;;
19605;SDS011;9950;50.168;8.210;2023-04-06T06:17:26;16.42;;;7.90;;
19605;SDS011;9950;50.168;8.210;2023-04-06T06:19:53;10.60;;;6.60;;
19605;SDS011;9950;50.168;8.210;2023-04-06T06:22:20;14.82;;;7.60;;
19605;SDS011;9950;50.168;8.210;2023-04-06T06:24:47;10.55;;;7.20;;
19605;SDS011;9950;50.168;8.210;2023-04-06T06:27:15;11.25;;;6.55;;
19605;SDS011;9950;50.168;8.210;2023-04-06T06:29:42;12.73;;;7.07;;
19605;SDS011;9950;50.168;8.210;2023-04-06T06:32:13;9.57;;;6.47;;
19605;SDS011;9950;50.168;8.210;2023-04-06T06:34:40;15.23;;;7.60;;
19605;SDS011;9950;50.168;8.210;2023-04-06T06:37:07;13.30;;;6.65;;
19605;SDS011;9950;50.168;8.210;2023-04-06T06:39:35;12.52;;;7.28;;
19605;SDS011;9950;50.168;8.210;2023-04-06T06:42:02;10.95;;;6.55;;
19605;SDS011;9950;50.168;8.210;2023-04-06T06:44:29;10.65;;;6.68;;
19605;SDS011;9950;50.168;8.210;2023-04-06T06:46:56;10.25;;;6.97;;
19605;SDS011;9950;50.168;8.210;2023-04-06T06:49:25;11.15;;;7.35;;
19605;SDS011;9950;50.168;8.210;2023-04-06T06:51:52;10.80;;;6.50;;
19605;SDS011;9950;50.168;8.210;2023-04-06T06:54:20;13.13;;;6.82;;
19605;SDS011;9950;50.168;8.210;2023-04-06T06:56:47;10.70;;;6.40;;
19605;SDS011;9950;50.168;8.210;2023-04-06T06:59:14;13.90;;;6.53;;
19605;SDS011;9950;50.168;8.210;2023-04-06T07:01:42;14.07;;;6.82;;
19605;SDS011;9950;50.168;8.210;2023-04-06T07:04:09;12.10;;;6.90;;
19605;SDS011;9950;50.168;8.210;2023-04-06T07:06:38;10.68;;;6.55;;
19605;SDS011;9950;50.168;8.210;2023-04-06T07:09:05;13.25;;;6.88;;
19605;SDS011;9950;50.168;8.210;2023-04-06T07:11:33;11.20;;;6.72;;
19605;SDS011;9950;50.168;8.210;2023-04-06T07:14:00;10.50;;;6.32;;
19605;SDS011;9950;50.168;8.210;2023-04-06T07:16:27;9.43;;;6.53;;
19605;SDS011;9950;50.168;8.210;2023-04-06T07:18:55;11.55;;;6.28;;
19605;SDS011;9950;50.168;8.210;2023-04-06T07:21:22;9.80;;;6.10;;
19605;SDS011;9950;50.168;8.210;2023-04-06T07:23:51;10.43;;;6.30;;
19605;SDS011;9950;50.168;8.210;2023-04-06T07:26:18;13.30;;;7.43;;
19605;SDS011;9950;50.168;8.210;2023-04-06T07:28:46;11.73;;;6.13;;
19605;SDS011;9950;50.168;8.210;2023-04-06T07:31:13;10.43;;;6.93;;
19605;SDS011;9950;50.168;8.210;2023-04-06T07:33:40;10.63;;;6.15;;
19605;SDS011;9950;50.168;8.210;2023-04-06T07:36:07;11.93;;;6.53;;
19605;SDS011;9950;50.168;8.210;2023-04-06T07:38:35;9.70;;;6.40;;
19605;SDS011;9950;50.168;8.210;2023-04-06T07:41:03;11.15;;;6.65;;
19605;SDS011;9950;50.168;8.210;2023-04-06T07:43:30;11.90;;;6.93;;
19605;SDS011;9950;50.168;8.210;2023-04-06T07:45:58;10.27;;;6.28;;
19605;SDS011;9950;50.168;8.210;2023-04-06T07:48:26;13.05;;;7.55;;
19605;SDS011;9950;50.168;8.210;2023-04-06T07:51:00;11.57;;;6.53;;
19605;SDS011;9950;50.168;8.210;2023-04-06T07:53:27;12.48;;;6.85;;
19605;SDS011;9950;50.168;8.210;2023-04-06T07:55:54;13.52;;;6.80;;
19605;SDS011;9950;50.168;8.210;2023-04-06T07:58:23;12.30;;;7.30;;
19605;SDS011;9950;50.168;8.210;2023-04-06T08:00:51;12.00;;;7.38;;
19605;SDS011;9950;50.168;8.210;2023-04-06T08:03:19;12.48;;;6.97;;
19605;SDS011;9950;50.168;8.210;2023-04-06T08:05:50;13.95;;;7.22;;
19605;SDS011;9950;50.168;8.210;2023-04-06T08:08:18;13.35;;;8.25;;
19605;SDS011;9950;50.168;8.210;2023-04-06T08:10:46;14.85;;;7.55;;
19605;SDS011;9950;50.168;8.210;2023-04-06T08:13:13;14.30;;;7.68;;
19605;SDS011;9950;50.168;8.210;2023-04-06T08:15:42;18.27;;;7.50;;
19605;SDS011;9950;50.168;8.210;2023-04-06T08:18:09;13.40;;;7.53;;
19605;SDS011;9950;50.168;8.210;2023-04-06T08:20:36;14.77;;;9.05;;
19605;SDS011;9950;50.168;8.210;2023-04-06T08:23:04;15.50;;;7.53;;
19605;SDS011;9950;50.168;8.210;2023-04-06T08:25:31;12.45;;;7.55;;
19605;SDS011;9950;50.168;8.210;2023-04-06T08:27:59;14.60;;;7.50;;
19605;SDS011;9950;50.168;8.210;2023-04-06T08:30:26;13.10;;;7.40;;
19605;SDS011;9950;50.168;8.210;2023-04-06T08:32:55;11.95;;;7.65;;
19605;SDS011;9950;50.168;8.210;2023-04-06T08:35:22;12.98;;;7.40;;
19605;SDS011;9950;50.168;8.210;2023-04-06T08:37:49;12.43;;;7.53;;
19605;SDS011;9950;50.168;8.210;2023-04-06T08:40:17;12.52;;;7.85;;
19605;SDS011;9950;50.168;8.210;2023-04-06T08:42:47;13.95;;;7.78;;
19605;SDS011;9950;50.168;8.210;2023-04-06T08:45:16;12.50;;;7.63;;
19605;SDS011;9950;50.168;8.210;2023-04-06T08:47:46;17.08;;;7.82;;
19605;SDS011;9950;50.168;8.210;2023-04-06T08:50:14;14.18;;;7.78;;
19605;SDS011;9950;50.168;8.210;2023-04-06T08:52:43;13.40;;;8.00;;
19605;SDS011;9950;50.168;8.210;2023-04-06T08:55:10;16.08;;;8.25;;
19605;SDS011;9950;50.168;8.210;2023-04-06T08:57:38;15.20;;;7.70;;
19605;SDS011;9950;50.168;8.210;2023-04-06T09:00:06;13.52;;;8.40;;
19605;SDS011;9950;50.168;8.210;2023-04-06T09:02:36;16.35;;;7.90;;
19605;SDS011;9950;50.168;8.210;2023-04-06T09:05:06;14.52;;;7.90;;
19605;SDS011;9950;50.168;8.210;2023-04-06T09:07:36;15.55;;;8.68;;
19605;SDS011;9950;50.168;8.210;2023-04-06T09:10:03;14.30;;;8.35;;
19605;SDS011;9950;50.168;8.210;2023-04-06T09:12:31;15.82;;;8.80;;
19605;SDS011;9950;50.168;8.210;2023-04-06T09:14:59;13.40;;;8.75;;
19605;SDS011;9950;50.168;8.210;2023-04-06T09:17:27;13.20;;;8.43;;
19605;SDS011;9950;50.168;8.210;2023-04-06T09:19:55;12.38;;;8.07;;
19605;SDS011;9950;50.168;8.210;2023-04-06T09:22:22;14.95;;;8.40;;
19605;SDS011;9950;50.168;8.210;2023-04-06T09:24:53;15.63;;;8.48;;
19605;SDS011;9950;50.168;8.210;2023-04-06T09:27:29;18.92;;;9.18;;
19605;SDS011;9950;50.168;8.210;2023-04-06T09:30:02;14.13;;;8.77;;
19605;SDS011;9950;50.168;8.210;2023-04-06T09:32:30;15.15;;;8.65;;
19605;SDS011;9950;50.168;8.210;2023-04-06T09:35:05;14.05;;;8.30;;
19605;SDS011;9950;50.168;8.210;2023-04-06T09:37:32;16.52;;;8.85;;
19605;SDS011;9950;50.168;8.210;2023-04-06T09:40:05;17.13;;;8.63;;
19605;SDS011;9950;50.168;8.210;2023-04-06T09:42:33;15.88;;;8.32;;
19605;SDS011;9950;50.168;8.210;2023-04-06T09:45:00;16.77;;;8.90;;
19605;SDS011;9950;50.168;8.210;2023-04-06T09:47:28;15.43;;;8.88;;
19605;SDS011;9950;50.168;8.210;2023-04-06T09:49:56;15.05;;;8.73;;
19605;SDS011;9950;50.168;8.210;2023-04-06T09:52:24;19.50;;;9.27;;
19605;SDS011;9950;50.168;8.210;2023-04-06T09:54:53;16.42;;;8.45;;
19605;SDS011;9950;50.168;8.210;2023-04-06T09:57:25;13.82;;;8.35;;
19605;SDS011;9950;50.168;8.210;2023-04-06T09:59:55;14.75;;;8.05;;
19605;SDS011;9950;50.168;8.210;2023-04-06T10:02:26;13.27;;;7.43;;
19605;SDS011;9950;50.168;8.210;2023-04-06T10:04:58;11.82;;;7.90;;
19605;SDS011;9950;50.168;8.210;2023-04-06T10:07:26;14.73;;;8.75;;
19605;SDS011;9950;50.168;8.210;2023-04-06T10:09:54;16.83;;;8.70;;
19605;SDS011;9950;50.168;8.210;2023-04-06T10:12:23;16.08;;;8.68;;
19605;SDS011;9950;50.168;8.210;2023-04-06T10:14:51;15.55;;;9.20;;
19605;SDS011;9950;50.168;8.210;2023-04-06T10:17:18;14.65;;;9.13;;
19605;SDS011;9950;50.168;8.210;2023-04-06T10:19:46;13.82;;;8.90;;
19605;SDS011;9950;50.168;8.210;2023-04-06T10:22:18;13.23;;;8.07;;
19605;SDS011;9950;50.168;8.210;2023-04-06T10:24:48;13.35;;;8.23;;
19605;SDS011;9950;50.168;8.210;2023-04-06T10:27:15;14.10;;;7.60;;
19605;SDS011;9950;50.168;8.210;2023-04-06T10:29:44;14.40;;;8.88;;
19605;SDS011;9950;50.168;8.210;2023-04-06T10:32:13;15.88;;;9.00;;
19605;SDS011;9950;50.168;8.210;2023-04-06T10:34:41;15.00;;;8.85;;
19605;SDS011;9950;50.168;8.210;2023-04-06T10:37:15;13.93;;;8.95;;
19605;SDS011;9950;50.168;8.210;2023-04-06T10:39:47;13.45;;;9.00;;
19605;SDS011;9950;50.168;8.210;2023-04-06T10:42:14;14.60;;;8.82;;
19605;SDS011;9950;50.168;8.210;2023-04-06T10:44:42;14.02;;;8.50;;
19605;SDS011;9950;50.168;8.210;2023-04-06T10:47:17;17.83;;;9.25;;
19605;SDS011;9950;50.168;8.210;2023-04-06T10:49:44;14.40;;;8.93;;
19605;SDS011;9950;50.168;8.210;2023-04-06T10:52:11;14.57;;;8.88;;
19605;SDS011;9950;50.168;8.210;2023-04-06T10:54:41;18.20;;;8.88;;
19605;SDS011;9950;50.168;8.210;2023-04-06T10:57:09;12.93;;;8.80;;
19605;SDS011;9950;50.168;8.210;2023-04-06T10:59:36;15.63;;;8.82;;
19605;SDS011;9950;50.168;8.210;2023-04-06T11:02:03;12.85;;;7.90;;
19605;SDS011;9950;50.168;8.210;2023-04-06T11:04:33;14.05;;;8.38;;
19605;SDS011;9950;50.168;8.210;2023-04-06T11:07:00;11.57;;;7.70;;
19605;SDS011;9950;50.168;8.210;2023-04-06T11:09:28;15.02;;;8.50;;
19605;SDS011;9950;50.168;8.210;2023-04-06T11:11:56;13.13;;;8.32;;
19605;SDS011;9950;50.168;8.210;2023-04-06T11:14:24;12.93;;;8.55;;
19605;SDS011;9950;50.168;8.210;2023-04-06T11:16:51;13.65;;;8.90;;
19605;SDS011;9950;50.168;8.210;2023-04-06T11:19:19;14.45;;;9.27;;
19605;SDS011;9950;50.168;8.210;2023-04-06T11:21:48;13.90;;;8.45;;
19605;SDS011;9950;50.168;8.210;2023-04-06T11:24:17;13.75;;;8.35;;
19605;SDS011;9950;50.168;8.210;2023-04-06T11:26:44;15.10;;;9.18;;
19605;SDS011;9950;50.168;8.210;2023-04-06T11:29:13;14.18;;;9.10;;
19605;SDS011;9950;50.168;8.210;2023-04-06T11:31:42;14.70;;;8.73;;
19605;SDS011;9950;50.168;8.210;2023-04-06T11:34:10;15.02;;;8.90;;
19605;SDS011;9950;50.168;8.210;2023-04-06T11:36:39;12.48;;;8.52;;
19605;SDS011;9950;50.168;8.210;2023-04-06T11:39:09;14.40;;;8.82;;
19605;SDS011;9950;50.168;8.210;2023-04-06T11:41:36;12.98;;;8.57;;
19605;SDS011;9950;50.168;8.210;2023-04-06T11:44:04;13.23;;;8.27;;
19605;SDS011;9950;50.168;8.210;2023-04-06T11:46:32;15.05;;;9.07;;
19605;SDS011;9950;50.168;8.210;2023-04-06T11:49:00;14.32;;;8.88;;
19605;SDS011;9950;50.168;8.210;2023-04-06T11:51:28;13.52;;;8.80;;
19605;SDS011;9950;50.168;8.210;2023-04-06T11:53:55;13.88;;;8.23;;
19605;SDS011;9950;50.168;8.210;2023-04-06T11:56:25;13.82;;;8.70;;
19605;SDS011;9950;50.168;8.210;2023-04-06T11:58:53;12.73;;;8.70;;
19605;SDS011;9950;50.168;8.210;2023-04-06T12:01:21;14.57;;;8.57;;
19605;SDS011;9950;50.168;8.210;2023-04-06T12:03:48;17.60;;;9.02;;
19605;SDS011;9950;50.168;8.210;2023-04-06T12:06:16;13.43;;;8.32;;
19605;SDS011;9950;50.168;8.210;2023-04-06T12:08:43;13.60;;;8.20;;
19605;SDS011;9950;50.168;8.210;2023-04-06T12:11:11;14.73;;;9.55;;
19605;SDS011;9950;50.168;8.210;2023-04-06T12:13:40;15.10;;;9.05;;
19605;SDS011;9950;50.168;8.210;2023-04-06T12:16:07;15.85;;;9.85;;
19605;SDS011;9950;50.168;8.210;2023-04-06T12:18:34;15.63;;;9.23;;
19605;SDS011;9950;50.168;8.210;2023-04-06T12:21:02;12.52;;;8.82;;
19605;SDS011;9950;50.168;8.210;2023-04-06T12:23:30;13.07;;;8.55;;
19605;SDS011;9950;50.168;8.210;2023-04-06T12:25:57;16.50;;;9.57;;
19605;SDS011;9950;50.168;8.210;2023-04-06T12:28:26;14.57;;;9.48;;
19605;SDS011;9950;50.168;8.210;2023-04-06T12:30:54;14.00;;;9.30;;
19605;SDS011;9950;50.168;8.210;2023-04-06T12:33:22;14.90;;;9.23;;
19605;SDS011;9950;50.168;8.210;2023-04-06T12:35:49;17.90;;;9.55;;
19605;SDS011;9950;50.168;8.210;2023-04-06T12:38:16;13.25;;;8.88;;
19605;SDS011;9950;50.168;8.210;2023-04-06T12:40:44;12.18;;;8.18;;
19605;SDS011;9950;50.168;8.210;2023-04-06T12:43:11;12.93;;;8.40;;
19605;SDS011;9950;50.168;8.210;2023-04-06T12:45:38;14.82;;;9.88;;
19605;SDS011;9950;50.168;8.210;2023-04-06T12:48:08;14.50;;;9.48;;
19605;SDS011;9950;50.168;8.210;2023-04-06T12:50:35;13.35;;;9.18;;
19605;SDS011;9950;50.168;8.210;2023-04-06T12:53:02;14.00;;;8.77;;
19605;SDS011;9950;50.168;8.210;2023-04-06T12:55:30;16.02;;;9.43;;
19605;SDS011;9950;50.168;8.210;2023-04-06T12:57:59;12.70;;;8.57;;
19605;SDS011;9950;50.168;8.210;2023-04-06T13:00:26;14.90;;;8.60;;
19605;SDS011;9950;50.168;8.210;2023-04-06T13:02:54;12.63;;;8.43;;
19605;SDS011;9950;50.168;8.210;2023-04-06T13:05:23;14.60;;;9.02;;
19605;SDS011;9950;50.168;8.210;2023-04-06T13:07:50;13.27;;;8.98;;
19605;SDS011;9950;50.168;8.210;2023-04-06T13:10:17;13.10;;;8.20;;
19605;SDS011;9950;50.168;8.210;2023-04-06T13:12:45;14.77;;;9.60;;
19605;SDS011;9950;50.168;8.210;2023-04-06T13:15:12;11.68;;;8.50;;
19605;SDS011;9950;50.168;8.210;2023-04-06T13:17:40;11.40;;;8.05;;
19605;SDS011;9950;50.168;8.210;2023-04-06T13:20:08;12.10;;;8.25;;
19605;SDS011;9950;50.168;8.210;2023-04-06T13:22:37;12.10;;;7.85;;
19605;SDS011;9950;50.168;8.210;2023-04-06T13:25:04;11.98;;;8.02;;
19605;SDS011;9950;50.168;8.210;2023-04-06T13:27:32;16.60;;;9.02;;
19605;SDS011;9950;50.168;8.210;2023-04-06T13:30:00;12.52;;;8.55;;
19605;SDS011;9950;50.168;8.210;2023-04-06T13:32:28;11.77;;;8.15;;
19605;SDS011;9950;50.168;8.210;2023-04-06T13:34:56;12.80;;;8.55;;
19605;SDS011;9950;50.168;8.210;2023-04-06T13:37:25;16.02;;;9.38;;
19605;SDS011;9950;50.168;8.210;2023-04-06T13:39:54;14.88;;;9.07;;
19605;SDS011;9950;50.168;8.210;2023-04-06T13:42:21;15.88;;;9.68;;
19605;SDS011;9950;50.168;8.210;2023-04-06T13:44:48;14.05;;;8.85;;
19605;SDS011;9950;50.168;8.210;2023-04-06T13:47:17;16.13;;;8.75;;
19605;SDS011;9950;50.168;8.210;2023-04-06T13:49:45;14.57;;;9.40;;
19605;SDS011;9950;50.168;8.210;2023-04-06T13:52:13;15.02;;;9.15;;
19605;SDS011;9950;50.168;8.210;2023-04-06T13:54:40;14.48;;;8.38;;
19605;SDS011;9950;50.168;8.210;2023-04-06T13:57:09;15.57;;;9.05;;
19605;SDS011;9950;50.168;8.210;2023-04-06T13:59:37;16.52;;;8.57;;
19605;SDS011;9950;50.168;8.210;2023-04-06T14:02:05;15.68;;;8.73;;
19605;SDS011;9950;50.168;8.210;2023-04-06T14:04:33;13.90;;;8.32;;
19605;SDS011;9950;50.168;8.210;2023-04-06T14:07:00;14.18;;;7.97;;
19605;SDS011;9950;50.168;8.210;2023-04-06T14:09:28;11.45;;;7.93;;
19605;SDS011;9950;50.168;8.210;2023-04-06T14:11:55;14.23;;;7.55;;
19605;SDS011;9950;50.168;8.210;2023-04-06T14:14:24;11.07;;;7.22;;
19605;SDS011;9950;50.168;8.210;2023-04-06T14:16:51;12.40;;;7.53;;
19605;SDS011;9950;50.168;8.210;2023-04-06T14:19:19;13.63;;;8.02;;
19605;SDS011;9950;50.168;8.210;2023-04-06T14:21:46;10.20;;;6.70;;
19605;SDS011;9950;50.168;8.210;2023-04-06T14:24:14;11.02;;;6.90;;
19605;SDS011;9950;50.168;8.210;2023-04-06T14:26:42;10.20;;;6.38;;
19605;SDS011;9950;50.168;8.210;2023-04-06T14:29:09;9.77;;;6.22;;
19605;SDS011;9950;50.168;8.210;2023-04-06T14:31:38;11.60;;;6.65;;
19605;SDS011;9950;50.168;8.210;2023-04-06T14:34:06;9.95;;;5.97;;
19605;SDS011;9950;50.168;8.210;2023-04-06T14:36:33;12.27;;;6.63;;
19605;SDS011;9950;50.168;8.210;2023-04-06T14:39:03;8.95;;;5.72;;
19605;SDS011;9950;50.168;8.210;2023-04-06T14:41:31;8.85;;;5.72;;
19605;SDS011;9950;50.168;8.210;2023-04-06T14:43:58;10.93;;;6.22;;
19605;SDS011;9950;50.168;8.210;2023-04-06T14:46:25;7.82;;;5.43;;
19605;SDS011;9950;50.168;8.210;2023-04-06T14:48:55;8.70;;;5.82;;
19605;SDS011;9950;50.168;8.210;2023-04-06T14:51:24;10.45;;;5.25;;
19605;SDS011;9950;50.168;8.210;2023-04-06T14:53:52;8.52;;;5.53;;